Time;durP1;ratioP1;P1;durP2;ratioP2;P2;SDS_P1;SDS_P2;PMS_P1;PMS_P2;Temp;Humidity;BMP_temperature;BMP_pressure;BME280_temperature;BME280_humidity;BME280_pressure;Samples;Min_cycle;Max_cycle;Signal;HPM_P1;HPM_P2
2021/08/07 00:00:24;;;;;;;1.67;1.17;;;;;;;;;;4993424;28;20420;-76
2021/08/07 00:02:50;;;;;;;3.53;1.57;;;;;;;;;;4993270;28;20480;-76
2021/08/07 00:05:16;;;;;;;2.00;1.80;;;;;;;;;;4993360;28;20927;-76
2021/08/07 00:07:42;;;;;;;1.90;1.80;;;;;;;;;;4993365;28;20382;-76
2021/08/07 00:10:09;;;;;;;3.60;2.00;;;;;;;;;;4993192;28;20386;-76
2021/08/07 00:12:35;;;;;;;2.60;2.00;;;;;;;;;;4993154;28;20474;-77
2021/08/07 00:15:01;;;;;;;6.50;1.70;;;;;;;;;;4993022;28;20841;-76
2021/08/07 00:17:27;;;;;;;3.10;1.70;;;;;;;;;;4993065;28;20480;-76
2021/08/07 00:19:53;;;;;;;2.60;2.23;;;;;;;;;;4993200;28;20896;-76
2021/08/07 00:22:19;;;;;;;4.60;1.90;;;;;;;;;;4994684;28;20423;-76
2021/08/07 00:24:45;;;;;;;3.73;2.57;;;;;;;;;;5039937;23;20521;-77
2021/08/07 00:27:11;;;;;;;2.10;1.70;;;;;;;;;;5016275;28;20775;-76
2021/08/07 00:29:37;;;;;;;2.13;1.67;;;;;;;;;;5016508;28;20413;-76
2021/08/07 00:32:03;;;;;;;3.00;2.20;;;;;;;;;;5016458;28;20931;-76
2021/08/07 00:34:30;;;;;;;3.60;1.77;;;;;;;;;;5015722;28;20495;-77
2021/08/07 00:36:56;;;;;;;4.63;1.77;;;;;;;;;;5016257;28;20394;-76
2021/08/07 00:39:22;;;;;;;2.87;1.80;;;;;;;;;;5016102;28;20429;-76
2021/08/07 00:41:48;;;;;;;3.83;1.73;;;;;;;;;;5016256;28;20998;-76
2021/08/07 00:44:14;;;;;;;1.47;1.37;;;;;;;;;;5015654;28;20761;-75
2021/08/07 00:46:40;;;;;;;1.87;1.40;;;;;;;;;;5016034;28;20509;-75
2021/08/07 00:49:06;;;;;;;2.40;1.17;;;;;;;;;;5015963;28;20417;-75
2021/08/07 00:51:32;;;;;;;2.37;1.97;;;;;;;;;;5015799;28;20563;-75
2021/08/07 00:54:01;;;;;;;2.83;1.63;;;;;;;;;;5015783;28;20402;-75
2021/08/07 00:56:27;;;;;;;3.97;1.63;;;;;;;;;;5015778;28;20501;-76
2021/08/07 00:58:53;;;;;;;2.70;2.00;;;;;;;;;;5015728;28;20421;-76
2021/08/07 01:01:19;;;;;;;6.00;2.00;;;;;;;;;;5015836;28;20413;-76
2021/08/07 01:03:47;;;;;;;5.10;1.90;;;;;;;;;;5015324;28;20865;-75
2021/08/07 01:06:24;;;;;;;2.50;1.80;;;;;;;;;;5015941;28;20421;-75
2021/08/07 01:09:02;;;;;;;2.00;1.40;;;;;;;;;;5015618;28;20388;-76
2021/08/07 01:11:32;;;;;;;2.60;2.00;;;;;;;;;;5015572;28;20504;-75
2021/08/07 01:14:01;;;;;;;3.57;1.80;;;;;;;;;;5015381;28;20377;-75
2021/08/07 01:16:32;;;;;;;3.23;1.87;;;;;;;;;;5015127;28;20401;-75
2021/08/07 01:18:59;;;;;;;2.20;1.50;;;;;;;;;;5015413;28;20496;-76
2021/08/07 01:21:34;;;;;;;3.93;1.73;;;;;;;;;;5015262;28;20447;-76
2021/08/07 01:24:05;;;;;;;2.70;1.87;;;;;;;;;;5015135;28;20388;-76
2021/08/07 01:26:45;;;;;;;2.10;1.70;;;;;;;;;;5015007;28;20473;-76
2021/08/07 01:29:11;;;;;;;3.03;1.60;;;;;;;;;;5015230;28;20394;-75
2021/08/07 01:31:37;;;;;;;2.60;1.67;;;;;;;;;;5015162;28;20505;-75
2021/08/07 01:34:03;;;;;;;2.53;1.73;;;;;;;;;;5013807;28;20479;-76
2021/08/07 01:36:31;;;;;;;2.57;1.63;;;;;;;;;;5014974;28;20461;-77
2021/08/07 01:38:57;;;;;;;3.50;1.50;;;;;;;;;;5015009;28;20384;-75
2021/08/07 01:41:23;;;;;;;4.53;1.80;;;;;;;;;;5014917;28;20428;-76
2021/08/07 01:43:50;;;;;;;4.67;2.03;;;;;;;;;;5014728;28;20417;-75
2021/08/07 01:46:17;;;;;;;3.07;1.60;;;;;;;;;;5014972;28;20433;-79
2021/08/07 01:48:46;;;;;;;3.20;1.80;;;;;;;;;;5014812;28;20418;-76
2021/08/07 01:51:14;;;;;;;2.30;1.80;;;;;;;;;;5014892;28;20473;-76
2021/08/07 01:53:41;;;;;;;2.10;1.90;;;;;;;;;;4997323;28;20392;-76
2021/08/07 01:56:07;;;;;;;3.07;1.90;;;;;;;;;;5014690;28;20517;-76
2021/08/07 01:58:34;;;;;;;2.60;1.60;;;;;;;;;;5014706;28;20798;-76
2021/08/07 02:01:01;;;;;;;2.83;1.93;;;;;;;;;;5014594;28;20414;-76
2021/08/07 02:03:28;;;;;;;5.67;2.03;;;;;;;;;;5014221;28;20472;-76
2021/08/07 02:05:54;;;;;;;3.87;1.70;;;;;;;;;;5014339;28;20433;-76
2021/08/07 02:08:20;;;;;;;1.57;1.47;;;;;;;;;;5014326;28;20417;-76
2021/08/07 02:10:47;;;;;;;3.73;1.57;;;;;;;;;;5014330;28;20475;-76
2021/08/07 02:13:15;;;;;;;2.63;1.80;;;;;;;;;;5013968;28;20418;-76
2021/08/07 02:15:41;;;;;;;2.90;1.70;;;;;;;;;;5014298;28;20453;-76
2021/08/07 02:18:07;;;;;;;1.73;1.50;;;;;;;;;;5014346;28;20413;-75
2021/08/07 02:20:34;;;;;;;2.90;1.73;;;;;;;;;;5014180;28;20408;-76
2021/08/07 02:23:00;;;;;;;3.53;1.77;;;;;;;;;;5013741;28;20422;-76
2021/08/07 02:25:26;;;;;;;2.70;1.80;;;;;;;;;;5014205;28;20464;-76
2021/08/07 02:27:52;;;;;;;2.13;1.60;;;;;;;;;;5014355;28;20390;-77
2021/08/07 02:30:18;;;;;;;3.10;1.73;;;;;;;;;;5014090;28;20971;-78
2021/08/07 02:32:45;;;;;;;2.53;2.00;;;;;;;;;;5014013;28;20773;-79
2021/08/07 02:35:12;;;;;;;2.83;1.70;;;;;;;;;;5013758;28;20414;-78
2021/08/07 02:37:39;;;;;;;2.17;1.80;;;;;;;;;;5014208;28;20401;-78
2021/08/07 02:40:06;;;;;;;2.27;1.70;;;;;;;;;;5013980;28;20406;-78
2021/08/07 02:42:32;;;;;;;2.07;1.87;;;;;;;;;;5013916;28;20537;-78
2021/08/07 02:44:58;;;;;;;2.93;1.47;;;;;;;;;;5013338;28;20529;-78
2021/08/07 02:47:25;;;;;;;3.27;2.13;;;;;;;;;;5013916;28;20402;-78
2021/08/07 02:49:52;;;;;;;4.23;2.07;;;;;;;;;;5013860;28;20397;-78
2021/08/07 02:52:18;;;;;;;4.47;2.20;;;;;;;;;;5013643;28;20450;-78
2021/08/07 02:54:44;;;;;;;4.77;1.80;;;;;;;;;;5013269;28;20430;-78
2021/08/07 02:57:10;;;;;;;4.50;1.97;;;;;;;;;;5013630;28;20817;-78
2021/08/07 02:59:36;;;;;;;3.63;2.20;;;;;;;;;;5013644;28;20417;-78
2021/08/07 03:02:02;;;;;;;3.13;1.90;;;;;;;;;;5013609;28;20941;-78
2021/08/07 03:04:28;;;;;;;3.67;1.70;;;;;;;;;;5013190;28;20441;-79
2021/08/07 03:06:54;;;;;;;6.50;2.00;;;;;;;;;;5013576;28;20461;-75
2021/08/07 03:09:20;;;;;;;4.40;1.90;;;;;;;;;;5013501;28;20427;-77
2021/08/07 03:11:46;;;;;;;4.60;2.43;;;;;;;;;;5013382;28;20651;-78
2021/08/07 03:14:12;;;;;;;1.60;1.43;;;;;;;;;;5013131;28;20449;-78
2021/08/07 03:16:39;;;;;;;2.70;1.83;;;;;;;;;;4996070;28;20422;-78
2021/08/07 03:19:05;;;;;;;5.20;1.90;;;;;;;;;;5013280;28;20489;-78
2021/08/07 03:21:31;;;;;;;4.33;2.00;;;;;;;;;;4995588;28;20504;-78
2021/08/07 03:23:57;;;;;;;4.30;2.20;;;;;;;;;;5012989;28;20921;-77
2021/08/07 03:26:23;;;;;;;2.30;1.83;;;;;;;;;;5013165;28;20476;-78
2021/08/07 03:28:49;;;;;;;2.00;1.50;;;;;;;;;;4995733;28;20985;-78
2021/08/07 03:31:15;;;;;;;3.53;1.90;;;;;;;;;;5013220;28;20457;-77
2021/08/07 03:33:42;;;;;;;2.63;2.10;;;;;;;;;;5012785;28;20413;-78
2021/08/07 03:36:09;;;;;;;3.70;2.10;;;;;;;;;;5013220;28;20426;-77
2021/08/07 03:38:35;;;;;;;2.00;1.90;;;;;;;;;;5013308;28;20460;-77
2021/08/07 03:41:01;;;;;;;3.13;1.83;;;;;;;;;;5013250;28;20413;-78
2021/08/07 03:43:26;;;;;;;2.07;1.63;;;14.50;99.90;;;;;;5012934;28;20922;-77
2021/08/07 03:45:54;;;;;;;3.53;1.90;;;;;;;;;;5013041;28;20524;-77
2021/08/07 03:48:20;;;;;;;3.47;1.80;;;;;;;;;;5013024;28;20265;-78
2021/08/07 03:50:46;;;;;;;2.47;1.77;;;14.50;99.90;;;;;;5012991;28;20888;-76
2021/08/07 03:53:11;;;;;;;3.90;2.27;;;14.60;99.90;;;;;;5012870;28;20417;-78
2021/08/07 03:55:37;;;;;;;3.23;1.90;;;;;;;;;;5013252;28;20205;-78
2021/08/07 03:58:05;;;;;;;2.03;1.70;;;;;;;;;;5015963;28;20175;-78
2021/08/07 04:00:33;;;;;;;3.00;1.97;;;;;;;;;;5016984;28;20812;-78
2021/08/07 04:02:59;;;;;;;6.20;1.90;;;14.60;99.90;;;;;;5016654;28;20384;-77
2021/08/07 04:05:27;;;;;;;3.97;2.17;;;;;;;;;;5016827;28;20441;-78
2021/08/07 04:08:01;;;;;;;3.10;2.00;;;;;;;;;;5016668;28;20425;-77
2021/08/07 04:10:28;;;;;;;6.33;1.80;;;;;;;;;;5016766;28;20820;-78
2021/08/07 04:12:54;;;;;;;4.13;2.70;;;14.50;99.90;;;;;;5016350;28;20472;-77
2021/08/07 04:15:22;;;;;;;2.90;1.93;;;;;;;;;;5016629;28;20930;-77
2021/08/07 04:17:50;;;;;;;2.40;1.80;;;;;;;;;;4982947;28;20644;-77
2021/08/07 04:20:16;;;;;;;2.00;1.70;;;;;;;;;;5016540;28;20500;-77
2021/08/07 04:22:44;;;;;;;4.33;2.20;;;;;;;;;;5016401;28;20483;-77
2021/08/07 04:25:10;;;;;;;4.20;2.20;;;;;;;;;;5016222;28;20439;-77
2021/08/07 04:27:36;;;;;;;4.50;2.00;;;;;;;;;;5016418;28;20475;-77
2021/08/07 04:30:03;;;;;;;3.80;1.57;;;;;;;;;;5016149;28;20418;-77
2021/08/07 04:32:29;;;;;;;3.70;2.20;;;;;;;;;;5016186;28;20469;-77
2021/08/07 04:34:57;;;;;;;5.70;2.30;;;14.60;99.90;;;;;;5015875;28;20429;-77
2021/08/07 04:37:25;;;;;;;2.50;1.90;;;;;;;;;;5016267;28;20422;-78
2021/08/07 04:39:53;;;;;;;4.27;1.73;;;;;;;;;;5016547;28;20376;-77
2021/08/07 04:42:19;;;;;;;2.50;1.50;;;;;;;;;;5016408;28;20456;-77
2021/08/07 04:44:45;;;;;;;1.70;1.60;;;;;;;;;;5015962;28;20438;-77
2021/08/07 04:47:11;;;;;;;3.30;1.47;;;;;;;;;;5016271;28;20513;-77
2021/08/07 04:49:39;;;;;;;4.10;2.07;;;;;;;;;;5017184;28;20485;-77
2021/08/07 04:52:05;;;;;;;6.17;2.10;;;;;;;;;;5015833;28;20469;-78
2021/08/07 04:54:31;;;;;;;3.00;1.80;;;14.90;99.90;;;;;;5015514;28;20824;-77
2021/08/07 04:56:58;;;;;;;2.60;1.60;;;14.90;99.90;;;;;;5016023;28;20811;-77
2021/08/07 04:59:26;;;;;;;3.63;1.40;;;;;;;;;;5015881;28;20484;-77
2021/08/07 05:01:52;;;;;;;3.70;1.70;;;;;;;;;;5016116;28;20902;-77
2021/08/07 05:04:18;;;;;;;2.47;1.40;;;;;;;;;;5015348;28;20414;-77
2021/08/07 05:06:44;;;;;;;2.23;1.60;;;;;;;;;;5015719;28;20958;-77
2021/08/07 05:09:10;;;;;;;2.03;1.60;;;;;;;;;;5015867;28;20554;-77
2021/08/07 05:11:36;;;;;;;3.87;1.40;;;;;;;;;;5015558;28;20796;-77
2021/08/07 05:14:02;;;;;;;2.73;2.10;;;;;;;;;;5015246;28;20439;-77
2021/08/07 05:16:28;;;;;;;4.03;1.80;;;;;;;;;;5015306;28;20400;-77
2021/08/07 05:18:54;;;;;;;3.03;1.63;;;;;;;;;;5015714;28;20564;-78
2021/08/07 05:21:20;;;;;;;5.13;1.70;;;;;;;;;;5015446;28;20392;-78
2021/08/07 05:23:46;;;;;;;6.20;2.03;;;;;;;;;;5015055;28;20421;-77
2021/08/07 05:26:12;;;;;;;2.33;1.70;;;;;;;;;;4997522;28;20468;-77
2021/08/07 05:28:38;;;;;;;1.80;1.27;;;;;;;;;;5015114;28;20429;-77
2021/08/07 05:31:04;;;;;;;2.60;1.50;;;;;;;;;;5015335;28;20500;-77
2021/08/07 05:33:30;;;;;;;2.77;1.63;;;;;;;;;;5014838;28;20839;-78
2021/08/07 05:35:56;;;;;;;4.37;2.23;;;;;;;;;;5015087;28;20409;-78
2021/08/07 05:38:22;;;;;;;4.73;1.97;;;;;;;;;;5015048;28;20389;-78
2021/08/07 05:40:48;;;;;;;1.63;1.23;;;;;;;;;;5015008;28;21031;-77
2021/08/07 05:43:14;;;;;;;5.37;1.70;;;;;;;;;;5014665;28;20409;-77
2021/08/07 05:45:40;;;;;;;2.50;1.73;;;;;;;;;;5014861;28;20797;-78
2021/08/07 05:48:07;;;;;;;3.40;1.43;;;;;;;;;;5014859;28;20422;-77
2021/08/07 05:50:34;;;;;;;2.03;1.60;;;;;;;;;;5014697;28;20402;-77
2021/08/07 05:53:00;;;;;;;4.70;2.30;;;;;;;;;;5014412;28;20547;-77
2021/08/07 05:55:26;;;;;;;1.27;1.10;;;;;;;;;;5014613;28;20851;-77
2021/08/07 05:57:53;;;;;;;2.80;1.53;;;;;;;;;;5014664;28;20436;-78
2021/08/07 06:00:20;;;;;;;1.87;1.17;;;;;;;;;;5014696;28;20417;-78
2021/08/07 06:02:47;;;;;;;3.53;1.67;;;;;;;;;;5014388;28;20438;-77
2021/08/07 06:05:12;;;;;;;7.07;1.60;;;16.40;99.90;;;;;;5014545;28;20429;-77
2021/08/07 06:07:38;;;;;;;5.70;1.43;;;16.50;99.90;;;;;;5014673;28;20504;-77
2021/08/07 06:10:04;;;;;;;3.27;1.67;;;16.50;99.90;;;;;;5014432;28;20182;-77
2021/08/07 06:12:30;;;;;;;2.93;1.33;;;;;;;;;;5014481;28;20218;-77
2021/08/07 06:14:56;;;;;;;2.57;1.37;;;;;;;;;;5014431;28;20426;-77
2021/08/07 06:17:24;;;;;;;5.87;2.30;;;;;;;;;;5014550;28;20747;-77
2021/08/07 06:19:51;;;;;;;6.63;2.00;;;;;;;;;;5014329;28;20425;-78
2021/08/07 06:22:18;;;;;;;2.73;1.33;;;;;;;;;;5014336;28;20776;-75
2021/08/07 06:24:44;;;;;;;3.53;1.90;;;17.00;99.90;;;;;;5013880;28;20844;-78
2021/08/07 06:27:10;;;;;;;7.83;1.77;;;;;;;;;;5014101;28;20437;-77
2021/08/07 06:29:38;;;;;;;5.63;1.87;;;;;;;;;;5014166;28;20425;-77
2021/08/07 06:32:04;;;;;;;2.63;1.60;;;;;;;;;;5014204;28;20884;-77
2021/08/07 06:34:30;;;;;;;4.37;1.70;;;;;;;;;;5013801;28;20412;-77
2021/08/07 06:36:56;;;;;;;4.13;1.77;;;;;;;;;;5014006;28;20795;-77
2021/08/07 06:39:22;;;;;;;1.20;1.10;;;;;;;;;;5013958;28;20520;-77
2021/08/07 06:41:48;;;;;;;3.37;1.50;;;;;;;;;;5014350;28;20779;-77
2021/08/07 06:44:14;;;;;;;4.70;1.60;;;;;;;;;;5015013;28;20586;-78
2021/08/07 06:46:40;;;;;;;2.80;1.40;;;;;;;;;;4997180;28;20476;-77
2021/08/07 06:49:06;;;;;;;3.83;1.60;;;;;;;;;;5013923;28;20384;-77
2021/08/07 06:51:32;;;;;;;4.37;2.10;;;;;;;;;;5014067;28;20468;-77
2021/08/07 06:53:58;;;;;;;4.77;2.20;;;;;;;;;;5013579;28;20880;-77
2021/08/07 06:56:24;;;;;;;2.33;1.57;;;;;;;;;;4996165;28;20428;-77
2021/08/07 06:58:50;;;;;;;3.97;1.83;;;;;;;;;;5013860;28;20429;-77
2021/08/07 07:01:16;;;;;;;2.23;1.53;;;;;;;;;;5013688;28;20410;-78
2021/08/07 07:03:42;;;;;;;3.90;1.50;;;;;;;;;;5013631;28;20396;-78
2021/08/07 07:06:08;;;;;;;3.80;1.23;;;;;;;;;;5014174;28;20434;-77
2021/08/07 07:08:34;;;;;;;2.70;1.50;;;;;;;;;;5013850;28;20418;-77
2021/08/07 07:11:00;;;;;;;3.53;1.40;;;;;;;;;;5013731;28;20917;-79
2021/08/07 07:13:26;;;;;;;4.30;1.57;;;;;;;;;;5013328;28;20437;-77
2021/08/07 07:15:52;;;;;;;3.50;2.27;;;;;;;;;;5013622;28;20416;-77
2021/08/07 07:18:18;;;;;;;5.30;1.90;;;;;;;;;;5013631;28;20955;-78
2021/08/07 07:20:44;;;;;;;2.13;1.33;;;;;;;;;;5013638;28;20422;-77
2021/08/07 07:23:12;;;;;;;3.20;1.67;;;;;;;;;;5013234;28;20902;-78
2021/08/07 07:25:38;;;;;;;4.20;2.00;;;;;;;;;;4996073;28;20453;-77
2021/08/07 07:28:05;;;;;;;2.80;1.40;;;;;;;;;;5013628;28;20475;-78
2021/08/07 07:30:32;;;;;;;7.90;2.10;;;;;;;;;;5013474;28;20384;-77
2021/08/07 07:32:59;;;;;;;4.00;1.67;;;;;;;;;;5016026;28;20553;-77
2021/08/07 07:35:27;;;;;;;3.90;1.57;;;;;;;;;;5017329;28;20457;-77
2021/08/07 07:37:55;;;;;;;3.70;1.43;;;;;;;;;;5017300;28;20406;-78
2021/08/07 07:40:23;;;;;;;2.70;1.40;;;;;;;;;;5016424;28;20467;-78
2021/08/07 07:42:51;;;;;;;5.03;1.47;;;;;;;;;;5016883;28;20405;-78
2021/08/07 07:45:19;;;;;;;4.23;1.57;;;;;;;;;;5017083;28;20797;-78
2021/08/07 07:47:47;;;;;;;4.10;1.50;;;;;;;;;;5017346;28;20493;-77
2021/08/07 07:50:15;;;;;;;3.30;1.43;;;;;;;;;;5017340;28;20508;-77
2021/08/07 07:52:44;;;;;;;3.87;1.50;;;;;;;;;;5017164;28;20544;-77
2021/08/07 07:55:12;;;;;;;4.57;2.00;;;;;;;;;;4999593;28;20437;-78
2021/08/07 07:57:40;;;;;;;4.40;1.20;;;;;;;;;;5017080;28;20467;-77
2021/08/07 08:00:09;;;;;;;6.17;1.60;;;;;;;;;;5017677;28;20441;-77
2021/08/07 08:02:37;;;;;;;1.97;1.17;;;;;;;;;;5017250;28;20390;-78
2021/08/07 08:05:03;;;;;;;2.30;1.43;;;;;;;;;;5016825;28;20541;-77
2021/08/07 08:07:31;;;;;;;5.10;1.50;;;;;;;;;;5017161;28;20442;-78
2021/08/07 08:09:59;;;;;;;2.20;1.40;;;;;;;;;;5017083;28;20445;-78
2021/08/07 08:12:27;;;;;;;4.30;1.43;;;;;;;;;;5018232;28;20548;-77
2021/08/07 08:14:54;;;;;;;2.40;1.00;;;;;;;;;;5018738;28;20428;-78
2021/08/07 08:17:21;;;;;;;3.90;1.20;;;;;;;;;;5017076;28;20827;-78
2021/08/07 08:19:49;;;;;;;4.27;1.70;;;;;;;;;;5016538;28;20421;-77
2021/08/07 08:22:16;;;;;;;2.80;1.10;;;;;;;;;;5017157;28;20441;-78
2021/08/07 08:24:43;;;;;;;9.50;1.47;;;;;;;;;;5018383;28;20696;-78
2021/08/07 08:27:13;;;;;;;2.57;1.10;;;;;;;;;;5016507;28;20425;-77
2021/08/07 08:29:40;;;;;;;3.50;1.40;;;;;;;;;;5016429;28;20501;-78
2021/08/07 08:32:07;;;;;;;2.50;1.20;;;;;;;;;;4998720;28;20539;-78
2021/08/07 08:34:34;;;;;;;4.93;1.63;;;;;;;;;;5016032;28;20524;-77
2021/08/07 08:37:02;;;;;;;2.40;1.10;;;;;;;;;;5016337;28;20497;-78
2021/08/07 08:39:28;;;;;;;2.90;1.40;;;;;;;;;;5016370;28;20953;-78
2021/08/07 08:41:56;;;;;;;3.80;1.60;;;;;;;;;;4982407;28;20509;-78
2021/08/07 08:44:22;;;;;;;1.90;1.40;;;;;;;;;;5015517;28;20441;-77
2021/08/07 08:46:50;;;;;;;5.30;1.53;;;;;;;;;;5016317;28;20436;-78
2021/08/07 08:49:18;;;;;;;4.07;1.40;;;;;;;;;;5016206;28;20388;-78
2021/08/07 08:51:46;;;;;;;2.50;1.50;;;;;;;;;;5016300;28;20859;-78
2021/08/07 08:54:13;;;;;;;3.33;1.20;;;;;;;;;;5015730;28;20997;-78
2021/08/07 08:56:40;;;;;;;2.73;1.20;;;;;;;;;;5017027;28;20925;-77
2021/08/07 08:59:09;;;;;;;3.50;1.30;;;;;;;;;;5016099;28;20402;-77
2021/08/07 09:01:36;;;;;;;3.00;1.20;;;;;;;;;;5016112;28;20406;-78
2021/08/07 09:04:04;;;;;;;2.67;1.63;;;;;;;;;;5015578;28;20414;-77
2021/08/07 09:06:32;;;;;;;3.50;1.20;;;;;;;;;;4998331;28;20513;-77
2021/08/07 09:09:13;;;;;;;3.10;1.23;;;;;;;;;;5015902;28;20858;-78
2021/08/07 09:11:51;;;;;;;2.70;1.43;;;;;;;;;;5015695;28;20485;-77
2021/08/07 09:14:26;;;;;;;4.60;1.53;;;;;;;;;;5015482;28;20897;-78
2021/08/07 09:16:59;;;;;;;5.00;1.20;;;;;;;;;;5015892;28;20814;-77
2021/08/07 09:19:27;;;;;;;3.70;1.53;;;;;;;;;;5015763;28;20464;-78
2021/08/07 09:22:07;;;;;;;4.03;1.50;;;;;;;;;;4997997;28;20922;-78
2021/08/07 09:24:35;;;;;;;5.60;1.83;;;;;;;;;;5015121;28;20434;-77
2021/08/07 09:27:03;;;;;;;3.13;0.90;;;;;;;;;;5015591;28;20758;-78
2021/08/07 09:29:40;;;;;;;2.33;1.13;;;;;;;;;;5015532;28;20464;-77
2021/08/07 09:32:07;;;;;;;5.30;1.33;;;;;;;;;;5015040;28;20408;-78
2021/08/07 09:34:34;;;;;;;4.40;1.57;;;;;;;;;;5014728;28;20449;-78
2021/08/07 09:37:01;;;;;;;4.07;1.10;;;;;;;;;;5015284;28;20818;-77
2021/08/07 09:39:39;;;;;;;1.83;0.97;;;;;;;;;;5015293;28;20907;-78
2021/08/07 09:42:06;;;;;;;6.37;2.03;;;;;;;;;;5015331;28;20769;-77
2021/08/07 09:44:34;;;;;;;5.87;1.47;;;;;;;;;;5014643;28;20438;-77
2021/08/07 09:47:10;;;;;;;3.90;1.30;;;;;;;;;;5015088;28;20414;-77
2021/08/07 09:49:39;;;;;;;5.43;1.57;;;;;;;;;;5014934;28;20405;-77
2021/08/07 09:52:07;;;;;;;3.07;1.47;;;;;;;;;;5015250;28;20464;-77
2021/08/07 09:54:38;;;;;;;3.03;1.07;;;;;;;;;;5013722;28;20568;-78
2021/08/07 09:57:05;;;;;;;5.43;1.83;;;;;;;;;;5014885;28;20406;-77
2021/08/07 09:59:33;;;;;;;1.77;0.90;;;;;;;;;;5014847;28;20901;-77
2021/08/07 10:02:00;;;;;;;3.03;1.57;;;;;;;;;;5014934;28;20779;-76
2021/08/07 10:04:39;;;;;;;4.00;1.10;;;;;;;;;;5014653;28;20815;-79
2021/08/07 10:07:07;;;;;;;2.63;1.23;;;;;;;;;;5015098;28;20419;-78
2021/08/07 10:09:35;;;;;;;1.50;1.03;;;;;;;;;;5014963;28;20426;-77
2021/08/07 10:12:06;;;;;;;4.57;1.10;;;;;;;;;;5014670;28;20770;-77
2021/08/07 10:14:34;;;;;;;1.90;0.97;;;;;;;;;;5014290;28;20508;-77
2021/08/07 10:17:01;;;;;;;6.37;1.53;;;;;;;;;;4996846;28;20468;-77
2021/08/07 10:19:29;;;;;;;4.17;1.30;;;;;;;;;;5014431;28;20460;-77
2021/08/07 10:21:56;;;;;;;2.93;1.40;;;;;;;;;;5014530;28;20418;-77
2021/08/07 10:24:23;;;;;;;4.40;1.90;;;;;;;;;;5013841;28;20436;-78
2021/08/07 10:26:51;;;;;;;2.03;1.30;;;;;;;;;;5013989;28;20426;-77
2021/08/07 10:29:19;;;;;;;10.33;1.20;;;;;;;;;;5014306;28;20414;-77
2021/08/07 10:31:46;;;;;;;4.00;1.30;;;;;;;;;;5014308;28;20393;-77
2021/08/07 10:34:16;;;;;;;3.77;1.03;;;;;;;;;;5013760;28;20465;-77
2021/08/07 10:36:43;;;;;;;3.10;1.13;;;;;;;;;;5014067;28;20533;-77
2021/08/07 10:39:11;;;;;;;3.20;1.10;;;;;;;;;;5014076;28;20388;-77
2021/08/07 10:41:38;;;;;;;7.20;1.53;;;;;;;;;;5014017;28;20468;-77
2021/08/07 10:44:07;;;;;;;3.53;1.73;;;;;;;;;;4996423;28;20511;-77
2021/08/07 10:46:34;;;;;;;3.50;1.33;;;;;;;;;;5013928;28;20775;-77
2021/08/07 10:49:00;;;;;;;3.33;1.30;;;;;;;;;;5013979;28;20401;-77
2021/08/07 10:51:27;;;;;;;2.13;1.30;;;;;;;;;;5013911;28;20417;-77
2021/08/07 10:53:54;;;;;;;2.50;1.40;;;;;;;;;;5013622;28;20440;-77
2021/08/07 10:56:29;;;;;;;2.90;1.20;;;;;;;;;;5013691;28;20400;-77
2021/08/07 10:58:56;;;;;;;5.33;1.40;;;;;;;;;;5013976;28;20412;-77
2021/08/07 11:01:25;;;;;;;3.00;1.60;;;;;;;;;;5013803;28;20381;-77
2021/08/07 11:04:05;;;;;;;3.30;1.20;;;;;;;;;;5013592;28;20453;-77
2021/08/07 11:06:44;;;;;;;3.60;1.50;;;;;;;;;;5013778;28;20446;-77
2021/08/07 11:09:29;;;;;;;3.90;1.77;;;;;;;;;;5013619;28;20428;-78
2021/08/07 11:12:08;;;;;;;3.13;1.30;;;;;;;;;;5013699;28;20388;-77
2021/08/07 11:14:34;;;;;;;2.40;1.17;;;;;;;;;;5013425;28;20440;-77
2021/08/07 11:17:06;;;;;;;2.13;1.20;;;;;;;;;;5013568;28;20410;-77
2021/08/07 11:19:54;;;;;;;3.23;1.37;;;;;;;;;;5013891;28;20820;-77
2021/08/07 11:22:47;;;;;;;3.40;1.00;;;;;;;;;;5014084;28;20401;-78
2021/08/07 11:25:17;;;;;;;2.67;1.37;;;;;;;;;;4998002;28;21024;-77
2021/08/07 11:27:55;;;;;;;1.57;1.17;;;;;;;;;;5016236;28;20410;-76
2021/08/07 11:30:22;;;;;;;4.93;1.20;;;;;;;;;;4995732;28;20419;-76
2021/08/07 11:33:00;;;;;;;3.50;1.03;;;;;;;;;;5012889;28;20402;-75
2021/08/07 11:35:35;;;;;;;2.30;1.03;;;;;;;;;;5013122;28;20421;-75
2021/08/07 11:40:40;;;;;;;2.40;0.80;;;;;;;;;;5013311;28;20471;-75
2021/08/07 11:43:06;;;;;;;2.50;1.00;;;;;;;;;;5012910;28;20858;-75
2021/08/07 11:45:32;;;;;;;1.50;0.90;;;;;;;;;;4995387;28;20453;-76
2021/08/07 11:47:58;;;;;;;2.37;1.07;;;;;;;;;;5013116;28;20406;-75
2021/08/07 11:50:25;;;;;;;1.00;0.80;;;;;;;;;;5013155;28;20410;-76
2021/08/07 11:52:51;;;;;;;2.50;0.90;;;;;;;;;;5012940;28;20434;-76
2021/08/07 11:55:18;;;;;;;3.80;1.00;;;;;;;;;;5012370;28;20808;-76
2021/08/07 11:57:44;;;;;;;1.60;0.93;;;;;;;;;;5012605;28;20445;-77
2021/08/07 12:00:22;;;;;;;1.30;0.90;;;;;;;;;;4995166;28;20418;-77
2021/08/07 12:03:05;;;;;;;2.00;0.90;;;;;;;;;;4993415;28;20438;-76
2021/08/07 12:05:32;;;;;;;1.57;1.10;;;;;;;;;;5011422;28;20436;-77
2021/08/07 12:08:01;;;;;;;2.27;0.83;;;;;;;;;;5012715;28;20449;-77
2021/08/07 12:10:27;;;;;;;2.40;1.10;;;;;;;;;;5012507;28;20413;-77
2021/08/07 12:12:54;;;;;;;1.40;0.80;;;;;;;;;;4978463;28;20426;-77
2021/08/07 12:15:20;;;;;;;2.40;0.80;;;;;;;;;;5012606;28;20438;-77
2021/08/07 12:17:49;;;;;;;1.00;0.80;;;;;;;;;;5013174;28;20757;-77
2021/08/07 12:20:15;;;;;;;5.03;1.10;;;;;;;;;;5016275;28;20839;-77
2021/08/07 12:23:01;;;;;;;1.10;0.80;;;;;;;;;;5016218;28;20468;-77
2021/08/07 12:25:27;;;;;;;1.87;1.00;;;;;;;;;;5014210;28;20536;-78
2021/08/07 12:28:02;;;;;;;2.90;0.90;;;;;;;;;;5015683;28;20435;-78
2021/08/07 12:30:28;;;;;;;5.30;1.20;;;;;;;;;;5016198;28;20412;-77
2021/08/07 12:33:14;;;;;;;1.23;0.77;;;;;;;;;;5016065;28;20414;-77
2021/08/07 12:35:40;;;;;;;1.20;0.70;;;;;;;;;;5016147;28;20425;-78
2021/08/07 12:38:11;;;;;;;1.20;0.80;;;;;;;;;;4999082;28;20398;-78
2021/08/07 12:40:37;;;;;;;7.23;1.47;;;;;;;;;;5016133;28;20905;-78
2021/08/07 12:43:03;;;;;;;1.97;0.90;;;;;;;;;;5015599;28;20409;-77
2021/08/07 12:45:29;;;;;;;2.50;0.90;;;;;;;;;;5017239;28;20434;-77
2021/08/07 12:47:55;;;;;;;1.87;1.00;;;;;;;;;;4998463;28;20405;-77
2021/08/07 12:50:22;;;;;;;1.63;1.00;;;;;;;;;;5016179;28;20490;-77
2021/08/07 12:52:51;;;;;;;0.97;0.73;;;;;;;;;;5015832;28;20406;-77
2021/08/07 12:55:20;;;;;;;2.73;1.20;;;;;;;;;;4998245;28;20457;-78
2021/08/07 12:57:46;;;;;;;2.10;0.97;;;;;;;;;;4998253;28;20418;-77
2021/08/07 13:00:12;;;;;;;2.10;0.80;;;;;;;;;;5015892;28;20420;-77
2021/08/07 13:02:38;;;;;;;2.53;1.00;;;;;;;;;;5015742;28;20418;-77
2021/08/07 13:05:05;;;;;;;2.03;1.20;;;;;;;;;;5015486;28;20441;-77
2021/08/07 13:07:33;;;;;;;1.37;0.83;;;;;;;;;;5015673;28;20501;-77
2021/08/07 13:10:17;;;;;;;2.27;0.90;;;;;;;;;;5009961;28;20910;-77
2021/08/07 13:12:44;;;;;;;2.33;1.37;;;;;;;;;;5015032;28;20417;-87
2021/08/07 13:15:13;;;;;;;1.33;0.90;;;;;;;;;;5014961;28;20799;-77
2021/08/07 13:17:46;;;;;;;1.23;0.93;;;;;;;;;;5007746;28;20434;-77
2021/08/07 13:20:14;;;;;;;1.13;0.90;;;;;;;;;;5015160;28;20401;-77
2021/08/07 13:22:42;;;;;;;1.50;0.90;;;;;;;;;;5014865;28;20472;-77
2021/08/07 13:25:14;;;;;;;1.13;0.77;;;;;;;;;;5014858;28;20448;-77
2021/08/07 13:27:40;;;;;;;1.17;0.77;;;;;;;;;;5015846;28;20922;-77
2021/08/07 13:30:10;;;;;;;1.40;0.70;;;;;;;;;;5014210;28;20460;-77
2021/08/07 13:32:36;;;;;;;1.23;0.90;;;;;;;;;;5015186;28;20418;-77
2021/08/07 13:35:12;;;;;;;1.97;0.80;;;;;;;;;;5014884;28;20512;-76
2021/08/07 13:37:38;;;;;;;1.27;0.90;;;;;;;;;;4997670;28;20906;-77
2021/08/07 13:40:05;;;;;;;1.93;0.97;;;;;;;;;;5015197;28;20910;-76
2021/08/07 13:42:31;;;;;;;1.70;0.80;;;;;;;;;;5014932;28;20437;-77
2021/08/07 13:44:57;;;;;;;1.10;0.70;;;;;;;;;;5014336;28;20973;-77
2021/08/07 13:47:23;;;;;;;1.87;0.80;;;;;;;;;;4997732;28;20430;-77
2021/08/07 13:49:50;;;;;;;2.97;1.00;;;;;;;;;;5014979;28;20414;-76
2021/08/07 13:52:17;;;;;;;2.23;0.70;;;;;;;;;;4997488;28;20444;-77
2021/08/07 13:54:43;;;;;;;2.57;1.00;;;;;;;;;;5014355;28;20466;-77
2021/08/07 13:57:09;;;;;;;1.40;0.90;;;;;;;;;;5015055;28;20416;-77
2021/08/07 13:59:36;;;;;;;1.67;0.73;;;;;;;;;;4997129;28;20413;-76
2021/08/07 14:02:09;;;;;;;2.90;1.00;;;;;;;;;;5014708;28;20424;-77
2021/08/07 14:04:35;;;;;;;1.30;0.87;;;;;;;;;;5014232;28;20753;-77
2021/08/07 14:07:01;;;;;;;2.47;0.93;;;;;;;;;;5014633;28;20500;-77
2021/08/07 14:09:27;;;;;;;1.57;0.70;;;;;;;;;;5014373;28;20414;-76
2021/08/07 14:11:54;;;;;;;2.10;0.90;;;;;;;;;;5014567;28;20493;-77
2021/08/07 14:14:20;;;;;;;1.47;0.97;;;;;;;;;;5013989;28;20454;-77
2021/08/07 14:16:46;;;;;;;1.20;0.80;;;;;;;;;;4996782;28;20406;-77
2021/08/07 14:19:12;;;;;;;1.73;0.87;;;;;;;;;;5013952;28;20425;-77
2021/08/07 14:21:41;;;;;;;2.80;1.00;;;;;;;;;;5014186;28;20456;-77
2021/08/07 14:24:08;;;;;;;3.03;1.40;;;;;;;;;;5014307;28;20414;-77
2021/08/07 14:26:34;;;;;;;1.20;0.90;;;;;;;;;;5014003;28;20449;-78
2021/08/07 14:29:00;;;;;;;1.73;1.10;;;;;;;;;;5013896;28;20814;-77
2021/08/07 14:31:28;;;;;;;1.10;0.80;;;;;;;;;;5014226;28;20417;-78
2021/08/07 14:33:54;;;;;;;2.80;1.20;;;;;;;;;;4996117;28;20485;-78
2021/08/07 14:36:20;;;;;;;2.40;0.90;;;;;;;;;;5013634;28;20495;-78
2021/08/07 14:38:47;;;;;;;2.00;1.17;;;;;;;;;;5013801;28;20417;-77
2021/08/07 14:41:13;;;;;;;1.33;0.93;;;;;;;;;;5016064;28;20449;-77
2021/08/07 14:43:39;;;;;;;2.17;0.90;;;;;;;;;;5013622;28;20431;-77